createdAt,value
2017-12-30T00:01:21.495Z,93.80
2017-12-30T00:03:49.015Z,93.70
2017-12-30T00:06:16.546Z,93.60
2017-12-30T00:08:44.066Z,93.50
2017-12-30T00:11:11.599Z,93.40
2017-12-30T00:13:39.093Z,93.20
2017-12-30T00:16:06.619Z,92.60
2017-12-30T00:18:34.130Z,92.90
2017-12-30T00:21:01.671Z,92.60
2017-12-30T00:23:29.197Z,92.60
2017-12-30T00:25:57.572Z,92.50
2017-12-30T00:28:25.119Z,92.40
2017-12-30T00:30:52.654Z,92.50
2017-12-30T00:33:20.294Z,92.20
2017-12-30T00:35:47.797Z,92.20
2017-12-30T00:38:15.328Z,92.10
2017-12-30T00:40:42.832Z,92.20
2017-12-30T00:43:11.086Z,92.40
2017-12-30T00:45:38.619Z,92.40
2017-12-30T00:48:06.129Z,92.20
2017-12-30T00:50:33.660Z,92.20
2017-12-30T00:53:01.200Z,92.10
2017-12-30T00:55:28.716Z,91.90
2017-12-30T00:57:56.294Z,91.80
2017-12-30T01:00:23.827Z,91.80
2017-12-30T01:02:51.492Z,92.00
2017-12-30T01:05:19.036Z,91.60
2017-12-30T01:07:47.328Z,91.60
2017-12-30T01:10:14.881Z,91.60
2017-12-30T01:12:42.408Z,91.60
2017-12-30T01:15:09.914Z,91.50
2017-12-30T01:17:37.466Z,91.90
2017-12-30T01:20:04.962Z,91.50
2017-12-30T01:22:32.467Z,91.70
2017-12-30T01:25:00.773Z,91.50
2017-12-30T01:27:28.373Z,91.50
2017-12-30T01:29:55.912Z,91.50
2017-12-30T01:32:23.504Z,91.60
2017-12-30T01:34:51.025Z,91.40
2017-12-30T01:37:18.555Z,91.60
2017-12-30T01:39:46.083Z,91.60
2017-12-30T01:42:13.580Z,91.70
2017-12-30T01:44:41.111Z,91.60
2017-12-30T01:47:09.373Z,91.30
2017-12-30T01:49:36.883Z,91.30
2017-12-30T01:52:04.418Z,91.30
2017-12-30T01:54:31.959Z,91.00
2017-12-30T01:57:00.275Z,90.70
2017-12-30T01:59:27.794Z,90.70
2017-12-30T02:01:55.320Z,90.30
2017-12-30T02:04:22.816Z,90.50
2017-12-30T02:06:50.359Z,90.40
2017-12-30T02:09:17.856Z,90.30
2017-12-30T02:11:45.401Z,90.20
2017-12-30T02:14:12.952Z,90.30
2017-12-30T02:16:41.228Z,90.30
2017-12-30T02:19:10.745Z,90.20
2017-12-30T02:21:38.275Z,90.10
2017-12-30T02:24:05.812Z,90.10
2017-12-30T02:26:33.321Z,90.00
2017-12-30T02:29:01.583Z,89.80
2017-12-30T02:31:29.101Z,90.20
2017-12-30T02:33:56.634Z,90.00
2017-12-30T02:36:24.135Z,90.00
2017-12-30T02:38:51.667Z,89.60
2017-12-30T02:41:19.162Z,89.70
2017-12-30T02:43:46.690Z,89.30
2017-12-30T02:46:14.206Z,90.10
2017-12-30T02:48:41.736Z,89.40
2017-12-30T02:51:09.231Z,88.70
2017-12-30T02:53:36.754Z,88.50
2017-12-30T02:56:04.329Z,88.60
2017-12-30T02:58:31.841Z,88.00
2017-12-30T03:00:59.347Z,88.30
2017-12-30T03:03:26.875Z,88.70
2017-12-30T03:05:54.403Z,88.80
2017-12-30T03:08:21.933Z,88.60
2017-12-30T03:10:49.460Z,88.60
2017-12-30T03:13:17.008Z,88.70
2017-12-30T03:15:44.537Z,88.90
2017-12-30T03:18:12.077Z,89.00
2017-12-30T03:20:39.594Z,88.80
2017-12-30T03:23:07.114Z,88.80
2017-12-30T03:25:34.607Z,88.50
2017-12-30T03:28:02.231Z,88.70
2017-12-30T03:30:29.774Z,88.70
2017-12-30T03:32:57.298Z,88.60
2017-12-30T03:35:24.800Z,88.50
2017-12-30T03:37:52.323Z,88.40
2017-12-30T03:40:20.615Z,88.00
2017-12-30T03:42:48.131Z,88.00
2017-12-30T03:45:15.646Z,87.60
2017-12-30T03:47:43.182Z,87.90
2017-12-30T03:50:10.684Z,87.50
2017-12-30T03:52:38.200Z,87.70
2017-12-30T03:55:06.481Z,87.60
2017-12-30T03:57:34.005Z,87.50
2017-12-30T04:00:02.351Z,87.60
2017-12-30T04:02:29.874Z,87.60
2017-12-30T04:04:57.397Z,87.50
2017-12-30T04:07:24.891Z,87.60
2017-12-30T04:09:52.411Z,87.50
2017-12-30T04:12:19.932Z,87.30
2017-12-30T04:14:47.478Z,87.30
2017-12-30T04:17:14.997Z,87.30
2017-12-30T04:19:42.514Z,87.20
2017-12-30T04:22:10.061Z,86.90
2017-12-30T04:24:37.562Z,86.80
2017-12-30T04:27:05.125Z,86.70
2017-12-30T04:29:32.625Z,86.70
2017-12-30T04:32:00.154Z,86.90
2017-12-30T04:34:27.672Z,86.40
2017-12-30T04:36:55.198Z,86.50
2017-12-30T04:39:22.728Z,85.30
2017-12-30T04:41:50.247Z,85.70
2017-12-30T04:44:17.785Z,85.30
2017-12-30T04:46:45.317Z,85.10
2017-12-30T04:49:12.848Z,85.30
2017-12-30T04:51:40.372Z,85.10
2017-12-30T04:54:07.905Z,85.30
2017-12-30T04:56:35.435Z,85.30
2017-12-30T04:59:02.945Z,85.30
2017-12-30T05:01:30.472Z,85.30
2017-12-30T05:03:58.032Z,85.50
2017-12-30T05:06:25.570Z,85.70
2017-12-30T05:08:53.125Z,85.90
2017-12-30T05:11:20.634Z,85.80
2017-12-30T05:13:48.144Z,86.50
2017-12-30T05:16:15.672Z,86.80
2017-12-30T05:18:43.174Z,86.80
2017-12-30T05:21:11.481Z,87.60
2017-12-30T05:23:39.007Z,87.60
2017-12-30T05:26:06.528Z,88.00
2017-12-30T05:28:34.071Z,88.40
2017-12-30T05:31:01.592Z,88.60
2017-12-30T05:33:29.859Z,89.70
2017-12-30T05:35:58.178Z,90.10
2017-12-30T05:38:25.681Z,90.10
2017-12-30T05:40:53.181Z,90.30
2017-12-30T05:43:20.705Z,90.60
2017-12-30T05:45:48.227Z,90.90
2017-12-30T05:48:15.752Z,91.10
2017-12-30T05:50:43.279Z,91.50
2017-12-30T05:53:10.816Z,91.60
2017-12-30T05:55:38.336Z,91.70
2017-12-30T05:58:05.886Z,92.00
2017-12-30T06:00:33.416Z,92.30
2017-12-30T06:03:00.907Z,92.50
2017-12-30T06:05:28.451Z,92.80
2017-12-30T06:07:56.712Z,93.10
2017-12-30T06:10:24.230Z,93.10
2017-12-30T06:12:51.766Z,93.30
2017-12-30T06:15:19.276Z,93.60
2017-12-30T06:17:46.798Z,94.00
2017-12-30T06:20:14.327Z,94.20
2017-12-30T06:22:41.835Z,94.30
2017-12-30T06:25:09.384Z,94.30
2017-12-30T06:27:36.890Z,94.30
2017-12-30T06:30:05.181Z,94.30
2017-12-30T06:32:32.702Z,94.20
2017-12-30T06:35:00.227Z,94.40
2017-12-30T06:37:27.748Z,94.40
2017-12-30T06:39:56.025Z,94.60
2017-12-30T06:42:24.350Z,94.60
2017-12-30T06:44:51.858Z,94.60
2017-12-30T06:47:20.157Z,95.00
2017-12-30T06:49:48.454Z,95.00
2017-12-30T06:52:15.966Z,95.00
2017-12-30T06:54:43.489Z,95.10
2017-12-30T06:57:11.006Z,95.00
2017-12-30T06:59:38.530Z,95.20
2017-12-30T07:02:06.077Z,95.00
2017-12-30T07:04:33.585Z,95.00
2017-12-30T07:07:01.080Z,95.40
2017-12-30T07:09:28.635Z,95.50
2017-12-30T07:11:56.126Z,95.40
2017-12-30T07:14:24.537Z,95.40
2017-12-30T07:16:52.062Z,95.40
2017-12-30T07:19:19.576Z,95.40
2017-12-30T07:21:47.122Z,95.50
2017-12-30T07:24:14.619Z,95.20
2017-12-30T07:26:42.151Z,95.30
2017-12-30T07:29:09.650Z,95.10
2017-12-30T07:31:37.945Z,95.10
2017-12-30T07:34:05.466Z,95.10
2017-12-30T07:36:32.991Z,95.20
2017-12-30T07:39:00.479Z,95.20
2017-12-30T07:41:28.027Z,95.00
2017-12-30T07:43:55.550Z,95.00
2017-12-30T07:46:23.059Z,95.00
2017-12-30T07:48:50.596Z,95.20
2017-12-30T07:51:18.097Z,95.10
2017-12-30T07:53:46.399Z,95.20
2017-12-30T07:56:13.922Z,95.20
2017-12-30T07:58:41.463Z,95.20
2017-12-30T08:01:08.980Z,95.30
2017-12-30T08:03:36.507Z,95.30
2017-12-30T08:06:04.047Z,95.40
2017-12-30T08:08:31.567Z,95.40
2017-12-30T08:10:59.083Z,95.50
2017-12-30T08:13:27.386Z,95.40
2017-12-30T08:15:54.894Z,95.40
2017-12-30T08:18:23.288Z,95.60
2017-12-30T08:20:50.797Z,95.60
2017-12-30T08:23:18.322Z,95.70
2017-12-30T08:25:46.636Z,96.00
2017-12-30T08:28:14.163Z,96.00
2017-12-30T08:30:42.466Z,96.00
2017-12-30T08:33:09.992Z,96.00
2017-12-30T08:35:38.266Z,96.20
2017-12-30T08:38:06.591Z,96.30
2017-12-30T08:40:34.141Z,96.30
2017-12-30T08:43:01.652Z,96.30
2017-12-30T08:45:30.022Z,96.40
2017-12-30T08:47:57.581Z,96.40
2017-12-30T08:50:25.103Z,96.40
2017-12-30T08:52:52.619Z,96.40
2017-12-30T08:55:20.941Z,96.70
2017-12-30T08:57:48.456Z,96.70
2017-12-30T09:00:16.737Z,96.70
2017-12-30T09:02:57.896Z,96.70
2017-12-30T09:05:34.903Z,96.60
2017-12-30T09:08:04.859Z,96.80
2017-12-30T09:10:32.367Z,97.00
2017-12-30T09:12:59.918Z,97.30
2017-12-30T09:15:28.179Z,97.70
2017-12-30T09:17:55.683Z,97.70
2017-12-30T09:20:23.259Z,97.90
2017-12-30T09:22:50.786Z,98.10
2017-12-30T09:25:18.290Z,98.30
2017-12-30T09:27:45.804Z,98.40
2017-12-30T09:30:13.347Z,98.50
2017-12-30T09:32:40.895Z,98.60
2017-12-30T09:35:08.435Z,98.70
2017-12-30T09:37:35.947Z,98.70
2017-12-30T09:40:03.465Z,98.60
2017-12-30T09:42:32.195Z,98.70
2017-12-30T09:44:59.823Z,98.70
2017-12-30T09:47:28.102Z,98.70
2017-12-30T09:49:56.431Z,98.50
2017-12-30T09:52:23.918Z,98.50
2017-12-30T09:54:51.423Z,98.50
2017-12-30T09:57:18.945Z,98.50
2017-12-30T09:59:47.236Z,98.50
2017-12-30T10:02:15.534Z,98.50
2017-12-30T10:04:43.051Z,98.70
2017-12-30T10:07:10.586Z,98.40
2017-12-30T10:09:38.113Z,98.70
2017-12-30T10:12:05.670Z,98.40
2017-12-30T10:14:33.226Z,98.50
2017-12-30T10:17:00.738Z,98.40
2017-12-30T10:19:28.262Z,98.10
2017-12-30T10:21:55.797Z,98.30
2017-12-30T10:24:23.312Z,98.30
2017-12-30T10:26:50.853Z,98.10
2017-12-30T10:29:18.352Z,98.10
2017-12-30T10:31:46.673Z,97.90
2017-12-30T10:34:14.184Z,97.90
2017-12-30T10:36:42.485Z,97.40
2017-12-30T10:39:10.103Z,97.30
2017-12-30T10:41:37.631Z,97.30
2017-12-30T10:44:05.181Z,97.60
2017-12-30T10:46:32.701Z,97.60
2017-12-30T10:49:00.261Z,97.30
2017-12-30T10:51:28.546Z,97.30
2017-12-30T10:53:56.091Z,97.30
2017-12-30T10:56:26.930Z,97.10
2017-12-30T10:58:54.484Z,97.00
2017-12-30T11:01:23.714Z,97.10
2017-12-30T11:03:51.231Z,97.00
2017-12-30T11:06:18.762Z,97.20
2017-12-30T11:08:46.280Z,97.10
2017-12-30T11:11:13.810Z,97.00
2017-12-30T11:13:41.325Z,96.70
2017-12-30T11:16:08.867Z,96.70
2017-12-30T11:18:36.383Z,96.70
2017-12-30T11:21:03.932Z,96.60
2017-12-30T11:23:31.488Z,96.40
2017-12-30T11:25:59.068Z,96.70
2017-12-30T11:28:27.353Z,97.50
2017-12-30T11:30:55.674Z,98.10
2017-12-30T11:33:23.192Z,98.10
2017-12-30T11:35:51.521Z,98.50
2017-12-30T11:38:19.069Z,98.50
2017-12-30T11:40:46.587Z,98.50
2017-12-30T11:43:14.895Z,98.20
2017-12-30T11:45:42.423Z,98.20
2017-12-30T11:48:10.747Z,98.20
2017-12-30T11:50:38.252Z,98.20
2017-12-30T11:53:06.571Z,97.50
2017-12-30T11:55:34.495Z,97.50
2017-12-30T11:58:02.056Z,97.30
2017-12-30T12:00:30.338Z,96.70
2017-12-30T12:02:58.651Z,96.50
2017-12-30T12:05:26.149Z,96.50
2017-12-30T12:07:53.696Z,96.30
2017-12-30T12:10:21.261Z,96.20
2017-12-30T12:12:48.832Z,96.20
2017-12-30T12:15:16.337Z,96.10
2017-12-30T12:17:43.881Z,96.40
2017-12-30T12:20:11.404Z,97.00
2017-12-30T12:22:38.914Z,97.50
2017-12-30T12:25:06.451Z,97.90
2017-12-30T12:27:34.004Z,98.20
2017-12-30T12:30:02.275Z,98.90
2017-12-30T12:32:30.593Z,99.10
2017-12-30T12:34:58.092Z,99.00
2017-12-30T12:37:25.612Z,98.90
2017-12-30T12:39:53.152Z,98.70
2017-12-30T12:42:20.689Z,98.40
2017-12-30T12:44:48.967Z,98.00
2017-12-30T12:47:17.235Z,97.60
2017-12-30T12:49:44.758Z,97.60
2017-12-30T12:52:13.064Z,97.50
2017-12-30T12:54:40.624Z,97.20
2017-12-30T12:57:08.904Z,97.20
2017-12-30T12:59:37.217Z,96.20
2017-12-30T13:02:04.730Z,96.20
2017-12-30T13:04:32.260Z,96.10
2017-12-30T13:06:59.799Z,96.40
2017-12-30T13:09:27.332Z,95.90
2017-12-30T13:11:54.867Z,96.10
2017-12-30T13:14:22.383Z,95.90
2017-12-30T13:16:49.894Z,95.90
2017-12-30T13:19:18.199Z,95.50
2017-12-30T13:21:45.727Z,95.50
2017-12-30T13:24:13.996Z,95.30
2017-12-30T13:26:41.530Z,95.20
2017-12-30T13:29:09.689Z,95.40
2017-12-30T13:31:37.224Z,95.30
2017-12-30T13:34:04.759Z,95.20
2017-12-30T13:36:33.075Z,95.00
2017-12-30T13:39:00.609Z,95.00
2017-12-30T13:41:28.121Z,94.90
2017-12-30T13:43:55.648Z,94.90
2017-12-30T13:46:23.259Z,94.80
2017-12-30T13:48:50.806Z,94.80
2017-12-30T13:51:18.408Z,94.70
2017-12-30T13:53:45.974Z,94.70
2017-12-30T13:56:13.788Z,94.70
2017-12-30T13:58:41.349Z,94.60
2017-12-30T14:01:08.910Z,94.70
2017-12-30T14:03:36.446Z,94.70
2017-12-30T14:06:04.029Z,94.70
2017-12-30T14:08:31.563Z,94.90
2017-12-30T14:10:59.095Z,94.80
2017-12-30T14:13:26.625Z,94.90
2017-12-30T14:15:54.893Z,94.80
2017-12-30T14:18:22.412Z,94.80
2017-12-30T14:20:49.964Z,94.80
2017-12-30T14:23:17.487Z,94.90
2017-12-30T14:25:45.021Z,95.00
2017-12-30T14:28:12.537Z,95.20
2017-12-30T14:30:40.871Z,95.30
2017-12-30T14:33:09.147Z,95.10
2017-12-30T14:35:37.444Z,95.20
2017-12-30T14:38:04.993Z,95.20
2017-12-30T14:40:33.285Z,95.10
2017-12-30T14:43:00.805Z,95.10
2017-12-30T14:45:28.386Z,95.10
2017-12-30T14:47:56.676Z,95.10
2017-12-30T14:50:24.193Z,95.00
2017-12-30T14:52:51.728Z,95.50
2017-12-30T14:55:19.260Z,95.00
2017-12-30T14:57:46.803Z,95.00
2017-12-30T15:00:15.128Z,95.50
2017-12-30T15:02:42.648Z,95.20
2017-12-30T15:05:10.179Z,95.00
2017-12-30T15:07:37.700Z,94.90
2017-12-30T15:10:05.227Z,94.90
2017-12-30T15:12:32.770Z,95.10
2017-12-30T15:15:00.316Z,95.00
2017-12-30T15:17:28.649Z,95.40
2017-12-30T15:19:56.195Z,95.10
2017-12-30T15:22:23.733Z,95.20
2017-12-30T15:24:52.014Z,95.10
2017-12-30T15:27:19.590Z,95.10
2017-12-30T15:29:47.116Z,95.00
2017-12-30T15:32:15.454Z,94.90
2017-12-30T15:34:42.988Z,94.90
2017-12-30T15:37:10.809Z,94.80
2017-12-30T15:39:39.122Z,94.60
2017-12-30T15:42:06.632Z,94.60
2017-12-30T15:44:34.134Z,94.60
2017-12-30T15:47:01.669Z,94.70
2017-12-30T15:49:29.964Z,94.80
2017-12-30T15:51:57.496Z,94.80
2017-12-30T15:54:25.840Z,95.10
2017-12-30T15:56:53.354Z,95.10
2017-12-30T15:59:20.863Z,95.10
2017-12-30T16:01:48.412Z,95.20
2017-12-30T16:04:15.935Z,95.30
2017-12-30T16:06:43.467Z,95.20
2017-12-30T16:09:11.001Z,95.20
2017-12-30T16:11:38.546Z,95.40
2017-12-30T16:14:06.051Z,95.30
2017-12-30T16:16:33.611Z,95.30
2017-12-30T16:19:01.118Z,95.40
2017-12-30T16:21:28.655Z,95.40
2017-12-30T16:23:56.202Z,95.40
2017-12-30T16:26:23.710Z,95.40
2017-12-30T16:28:51.219Z,95.40
2017-12-30T16:31:18.787Z,95.40
2017-12-30T16:33:46.319Z,95.40
2017-12-30T16:36:14.627Z,95.40
2017-12-30T16:38:42.950Z,95.40
2017-12-30T16:41:10.526Z,95.30
2017-12-30T16:43:38.855Z,95.50
2017-12-30T16:46:06.361Z,95.20
2017-12-30T16:48:34.628Z,95.10
2017-12-30T16:51:02.150Z,95.10
2017-12-30T16:53:29.654Z,95.00
2017-12-30T16:55:57.224Z,95.00
2017-12-30T16:58:24.762Z,94.90
2017-12-30T17:00:52.284Z,94.90
2017-12-30T17:03:19.821Z,94.90
2017-12-30T17:05:47.376Z,94.80
2017-12-30T17:08:14.915Z,95.00
2017-12-30T17:10:43.196Z,94.60
2017-12-30T17:13:11.501Z,94.40
2017-12-30T17:15:38.999Z,94.40
2017-12-30T17:18:06.527Z,94.30
2017-12-30T17:20:34.020Z,94.30
2017-12-30T17:23:01.570Z,94.20
2017-12-30T17:25:29.075Z,94.20
2017-12-30T17:27:56.587Z,94.10
2017-12-30T17:30:24.114Z,94.20
2017-12-30T17:32:51.682Z,94.40
2017-12-30T17:35:19.201Z,94.70
2017-12-30T17:37:47.468Z,95.60
2017-12-30T17:40:15.024Z,95.60
2017-12-30T17:42:43.362Z,96.80
2017-12-30T17:45:10.909Z,96.80
2017-12-30T17:47:38.464Z,97.10
2017-12-30T17:50:05.985Z,97.90
2017-12-30T17:52:34.278Z,98.70
2017-12-30T17:55:01.837Z,98.60
2017-12-30T17:57:29.467Z,99.00
2017-12-30T17:59:56.999Z,99.10
2017-12-30T18:02:24.548Z,99.30
2017-12-30T18:04:52.086Z,99.70
2017-12-30T18:07:19.621Z,99.70
2017-12-30T18:09:47.933Z,99.90
2017-12-30T18:12:15.511Z,99.90
2017-12-30T18:14:43.028Z,99.90
2017-12-30T18:17:10.572Z,99.90
2017-12-30T18:19:38.866Z,99.90
2017-12-30T18:22:06.438Z,99.90
2017-12-30T18:24:33.946Z,99.90
2017-12-30T18:27:01.506Z,99.90
2017-12-30T18:29:29.799Z,99.90
2017-12-30T18:31:58.076Z,99.90
2017-12-30T18:34:26.388Z,99.90
2017-12-30T18:36:53.924Z,99.90
2017-12-30T18:39:22.218Z,99.90
2017-12-30T18:41:49.774Z,99.90
2017-12-30T18:44:17.326Z,99.90
2017-12-30T18:46:44.855Z,99.90
2017-12-30T18:49:13.163Z,99.90
2017-12-30T18:51:40.714Z,99.90
2017-12-30T18:54:08.239Z,99.90
2017-12-30T18:56:35.803Z,99.90
2017-12-30T18:59:03.310Z,99.90
2017-12-30T19:01:30.840Z,99.90
2017-12-30T19:03:58.334Z,99.90
2017-12-30T19:06:25.898Z,99.90
2017-12-30T19:08:53.447Z,99.90
2017-12-30T19:11:21.023Z,99.90
2017-12-30T19:13:48.567Z,99.90
2017-12-30T19:16:16.099Z,99.90
2017-12-30T19:18:43.653Z,99.90
2017-12-30T19:21:11.164Z,99.90
2017-12-30T19:23:38.718Z,99.90
2017-12-30T19:26:06.233Z,99.90
2017-12-30T19:28:33.757Z,99.90
2017-12-30T19:31:01.288Z,99.90
2017-12-30T19:33:28.835Z,99.90
2017-12-30T19:35:56.357Z,99.90
2017-12-30T19:38:24.657Z,99.90
2017-12-30T19:40:52.195Z,99.90
2017-12-30T19:43:19.700Z,99.90
2017-12-30T19:45:47.242Z,99.90
2017-12-30T19:48:14.762Z,99.90
2017-12-30T19:50:42.283Z,99.90
2017-12-30T19:53:09.844Z,99.90
2017-12-30T19:55:37.379Z,99.90
2017-12-30T19:58:05.067Z,99.90
2017-12-30T20:00:32.592Z,99.90
2017-12-30T20:03:00.127Z,99.90
2017-12-30T20:05:28.487Z,99.90
2017-12-30T20:07:56.009Z,99.90
2017-12-30T20:10:23.534Z,99.90
2017-12-30T20:12:51.100Z,99.90
2017-12-30T20:15:18.660Z,99.90
2017-12-30T20:17:49.034Z,99.90
2017-12-30T20:20:16.664Z,99.90
2017-12-30T20:22:46.592Z,99.90
2017-12-30T20:25:14.143Z,99.90
2017-12-30T20:27:42.498Z,99.90
2017-12-30T20:30:10.046Z,99.90
2017-12-30T20:32:37.623Z,99.90
2017-12-30T20:35:05.194Z,99.90
2017-12-30T20:37:33.609Z,99.90
2017-12-30T20:40:01.165Z,99.90
2017-12-30T20:42:28.743Z,99.90
2017-12-30T20:44:56.323Z,99.90
2017-12-30T20:47:23.851Z,99.90
2017-12-30T20:49:51.431Z,99.90
2017-12-30T20:52:20.545Z,99.90
2017-12-30T20:54:48.098Z,99.90
2017-12-30T20:57:15.669Z,99.90
2017-12-30T20:59:43.192Z,99.90
2017-12-30T21:02:10.751Z,99.90
2017-12-30T21:04:38.315Z,99.90
2017-12-30T21:07:07.309Z,99.90
2017-12-30T21:09:34.857Z,99.90
2017-12-30T21:12:02.440Z,99.90
2017-12-30T21:14:30.017Z,99.90
2017-12-30T21:16:57.653Z,99.90
2017-12-30T21:19:25.988Z,99.90
2017-12-30T21:21:53.524Z,99.90
2017-12-30T21:24:21.080Z,99.90
2017-12-30T21:26:48.627Z,99.90
2017-12-30T21:29:16.220Z,99.90
2017-12-30T21:31:44.659Z,99.90
2017-12-30T21:34:12.953Z,99.90
2017-12-30T21:36:40.558Z,99.90
2017-12-30T21:39:08.067Z,99.90
2017-12-30T21:41:35.624Z,99.90
2017-12-30T21:44:03.859Z,99.90
2017-12-30T21:46:31.429Z,99.90
2017-12-30T21:48:58.972Z,99.90
2017-12-30T21:51:26.484Z,99.90
2017-12-30T21:53:54.009Z,99.90
2017-12-30T21:56:21.585Z,99.90
2017-12-30T21:58:49.111Z,99.90
2017-12-30T22:01:16.635Z,99.90
2017-12-30T22:03:44.139Z,99.90
2017-12-30T22:06:11.801Z,99.90
2017-12-30T22:08:39.319Z,99.90
2017-12-30T22:11:06.848Z,99.90
2017-12-30T22:13:34.387Z,99.90
2017-12-30T22:16:02.732Z,99.90
2017-12-30T22:18:30.256Z,99.90
2017-12-30T22:20:57.811Z,99.90
2017-12-30T22:23:25.301Z,99.90
2017-12-30T22:25:55.911Z,99.90
2017-12-30T22:28:23.465Z,99.90
2017-12-30T22:30:51.749Z,99.90
2017-12-30T22:33:19.271Z,99.90
2017-12-30T22:35:47.596Z,99.90
2017-12-30T22:38:15.111Z,99.90
2017-12-30T22:40:43.381Z,99.90
2017-12-30T22:43:11.687Z,99.90
2017-12-30T22:45:39.178Z,99.90
2017-12-30T22:48:07.196Z,99.90
2017-12-30T22:50:35.484Z,99.90
2017-12-30T22:53:03.046Z,99.90
2017-12-30T22:55:30.600Z,99.90
2017-12-30T22:57:58.165Z,99.90
2017-12-30T23:00:36.730Z,99.90
2017-12-30T23:03:04.336Z,99.90
2017-12-30T23:05:31.892Z,99.90
2017-12-30T23:07:59.399Z,99.90
2017-12-30T23:10:26.914Z,99.90
2017-12-30T23:12:54.456Z,99.90
2017-12-30T23:15:22.858Z,99.70
2017-12-30T23:17:50.397Z,99.70
2017-12-30T23:20:17.914Z,99.60
2017-12-30T23:22:45.452Z,99.40
2017-12-30T23:25:12.959Z,99.20
2017-12-30T23:27:40.531Z,98.70
2017-12-30T23:30:08.791Z,98.00
2017-12-30T23:32:36.348Z,98.20
2017-12-30T23:35:03.839Z,98.10
2017-12-30T23:37:31.343Z,97.50
2017-12-30T23:39:58.856Z,96.90
2017-12-30T23:42:26.388Z,96.40
2017-12-30T23:44:54.666Z,96.20
2017-12-30T23:47:22.971Z,96.30
2017-12-30T23:49:50.473Z,96.30
2017-12-30T23:52:18.010Z,96.10
2017-12-30T23:54:45.515Z,96.00
2017-12-30T23:57:13.802Z,95.90
2017-12-30T23:59:42.111Z,96.00
